sensor_id;sensor_type;location;lat;lon;timestamp;P1;durP1;ratioP1;P2;durP2;ratioP2
85472;SDS011;75874;41.386;22.136;2024-03-07T00:00:21;9.07;;;5.32;;
85472;SDS011;75874;41.386;22.136;2024-03-07T00:02:48;10.68;;;5.88;;
85472;SDS011;75874;41.386;22.136;2024-03-07T00:05:15;8.40;;;5.15;;
85472;SDS011;75874;41.386;22.136;2024-03-07T00:07:44;9.90;;;5.22;;
85472;SDS011;75874;41.386;22.136;2024-03-07T00:10:10;9.52;;;5.85;;
85472;SDS011;75874;41.386;22.136;2024-03-07T00:12:36;9.95;;;5.40;;
85472;SDS011;75874;41.386;22.136;2024-03-07T00:15:06;12.50;;;6.38;;
85472;SDS011;75874;41.386;22.136;2024-03-07T00:17:34;13.25;;;6.50;;
85472;SDS011;75874;41.386;22.136;2024-03-07T00:20:00;13.10;;;6.57;;
85472;SDS011;75874;41.386;22.136;2024-03-07T00:22:29;12.30;;;6.88;;
85472;SDS011;75874;41.386;22.136;2024-03-07T00:24:56;11.55;;;6.15;;
85472;SDS011;75874;41.386;22.136;2024-03-07T00:27:22;11.82;;;7.20;;
85472;SDS011;75874;41.386;22.136;2024-03-07T00:29:48;10.10;;;5.47;;
85472;SDS011;75874;41.386;22.136;2024-03-07T00:32:21;8.32;;;5.38;;
85472;SDS011;75874;41.386;22.136;2024-03-07T00:34:49;10.93;;;5.75;;
85472;SDS011;75874;41.386;22.136;2024-03-07T00:37:15;11.15;;;6.18;;
85472;SDS011;75874;41.386;22.136;2024-03-07T00:39:41;9.95;;;6.13;;
85472;SDS011;75874;41.386;22.136;2024-03-07T00:42:08;9.85;;;5.72;;
85472;SDS011;75874;41.386;22.136;2024-03-07T00:44:34;14.85;;;6.43;;
85472;SDS011;75874;41.386;22.136;2024-03-07T00:47:00;13.85;;;6.47;;
85472;SDS011;75874;41.386;22.136;2024-03-07T00:49:27;11.93;;;5.72;;
85472;SDS011;75874;41.386;22.136;2024-03-07T00:51:53;7.97;;;4.97;;
85472;SDS011;75874;41.386;22.136;2024-03-07T00:54:19;8.45;;;5.15;;
85472;SDS011;75874;41.386;22.136;2024-03-07T00:56:45;9.70;;;5.63;;
85472;SDS011;75874;41.386;22.136;2024-03-07T00:59:14;9.23;;;5.18;;
85472;SDS011;75874;41.386;22.136;2024-03-07T01:01:41;9.88;;;5.38;;
85472;SDS011;75874;41.386;22.136;2024-03-07T01:04:07;12.38;;;6.15;;
85472;SDS011;75874;41.386;22.136;2024-03-07T01:06:33;11.25;;;6.43;;
85472;SDS011;75874;41.386;22.136;2024-03-07T01:08:59;9.98;;;5.38;;
85472;SDS011;75874;41.386;22.136;2024-03-07T01:11:25;10.55;;;6.30;;
85472;SDS011;75874;41.386;22.136;2024-03-07T01:13:51;8.55;;;5.47;;
85472;SDS011;75874;41.386;22.136;2024-03-07T01:16:17;13.43;;;6.35;;
85472;SDS011;75874;41.386;22.136;2024-03-07T01:18:42;11.88;;;6.13;;
85472;SDS011;75874;41.386;22.136;2024-03-07T01:21:08;11.27;;;5.90;;
85472;SDS011;75874;41.386;22.136;2024-03-07T01:23:35;15.00;;;6.88;;
85472;SDS011;75874;41.386;22.136;2024-03-07T01:26:00;9.90;;;5.47;;
85472;SDS011;75874;41.386;22.136;2024-03-07T01:28:27;10.82;;;6.28;;
85472;SDS011;75874;41.386;22.136;2024-03-07T01:30:55;12.60;;;6.28;;
85472;SDS011;75874;41.386;22.136;2024-03-07T01:33:22;14.25;;;7.10;;
85472;SDS011;75874;41.386;22.136;2024-03-07T01:35:48;10.27;;;6.05;;
85472;SDS011;75874;41.386;22.136;2024-03-07T01:38:14;10.05;;;6.03;;
85472;SDS011;75874;41.386;22.136;2024-03-07T01:40:41;10.20;;;6.57;;
85472;SDS011;75874;41.386;22.136;2024-03-07T01:43:08;11.95;;;6.30;;
85472;SDS011;75874;41.386;22.136;2024-03-07T01:45:36;12.70;;;7.72;;
85472;SDS011;75874;41.386;22.136;2024-03-07T01:48:10;12.82;;;6.78;;
85472;SDS011;75874;41.386;22.136;2024-03-07T01:50:43;11.55;;;6.15;;
85472;SDS011;75874;41.386;22.136;2024-03-07T01:53:10;9.70;;;5.63;;
85472;SDS011;75874;41.386;22.136;2024-03-07T01:55:37;9.05;;;5.60;;
85472;SDS011;75874;41.386;22.136;2024-03-07T01:58:04;10.85;;;5.30;;
85472;SDS011;75874;41.386;22.136;2024-03-07T02:00:31;12.38;;;6.35;;
85472;SDS011;75874;41.386;22.136;2024-03-07T02:02:57;11.30;;;5.78;;
85472;SDS011;75874;41.386;22.136;2024-03-07T02:05:23;10.82;;;6.13;;
85472;SDS011;75874;41.386;22.136;2024-03-07T02:07:50;9.77;;;5.03;;
85472;SDS011;75874;41.386;22.136;2024-03-07T02:10:16;9.35;;;5.18;;
85472;SDS011;75874;41.386;22.136;2024-03-07T02:12:43;11.73;;;6.05;;
85472;SDS011;75874;41.386;22.136;2024-03-07T02:15:10;9.93;;;5.15;;
85472;SDS011;75874;41.386;22.136;2024-03-07T02:17:36;11.95;;;6.25;;
85472;SDS011;75874;41.386;22.136;2024-03-07T02:20:02;9.65;;;6.38;;
85472;SDS011;75874;41.386;22.136;2024-03-07T02:22:33;13.65;;;5.78;;
85472;SDS011;75874;41.386;22.136;2024-03-07T02:24:58;12.35;;;6.20;;
85472;SDS011;75874;41.386;22.136;2024-03-07T02:27:24;11.85;;;6.90;;
85472;SDS011;75874;41.386;22.136;2024-03-07T02:29:50;9.90;;;5.97;;
85472;SDS011;75874;41.386;22.136;2024-03-07T02:32:16;8.82;;;5.50;;
85472;SDS011;75874;41.386;22.136;2024-03-07T02:34:43;10.52;;;5.50;;
85472;SDS011;75874;41.386;22.136;2024-03-07T02:37:08;10.55;;;6.50;;
85472;SDS011;75874;41.386;22.136;2024-03-07T02:42:22;13.80;;;6.63;;
85472;SDS011;75874;41.386;22.136;2024-03-07T02:44:47;11.23;;;6.78;;
85472;SDS011;75874;41.386;22.136;2024-03-07T02:47:13;10.65;;;6.68;;
85472;SDS011;75874;41.386;22.136;2024-03-07T02:49:39;11.82;;;6.40;;
85472;SDS011;75874;41.386;22.136;2024-03-07T02:52:04;13.38;;;6.80;;
85472;SDS011;75874;41.386;22.136;2024-03-07T02:54:33;12.07;;;6.53;;
85472;SDS011;75874;41.386;22.136;2024-03-07T02:56:59;14.30;;;7.53;;
85472;SDS011;75874;41.386;22.136;2024-03-07T02:59:25;13.68;;;7.00;;
85472;SDS011;75874;41.386;22.136;2024-03-07T03:01:51;15.65;;;7.68;;
85472;SDS011;75874;41.386;22.136;2024-03-07T03:04:16;14.38;;;7.95;;
85472;SDS011;75874;41.386;22.136;2024-03-07T03:06:43;12.13;;;7.28;;
85472;SDS011;75874;41.386;22.136;2024-03-07T03:09:08;12.82;;;7.80;;
85472;SDS011;75874;41.386;22.136;2024-03-07T03:11:38;13.65;;;7.47;;
85472;SDS011;75874;41.386;22.136;2024-03-07T03:14:04;14.15;;;8.38;;
85472;SDS011;75874;41.386;22.136;2024-03-07T03:16:30;14.32;;;7.65;;
85472;SDS011;75874;41.386;22.136;2024-03-07T03:18:56;15.00;;;7.45;;
85472;SDS011;75874;41.386;22.136;2024-03-07T03:21:23;17.02;;;8.68;;
85472;SDS011;75874;41.386;22.136;2024-03-07T03:23:49;10.52;;;5.90;;
85472;SDS011;75874;41.386;22.136;2024-03-07T03:26:14;10.98;;;6.13;;
85472;SDS011;75874;41.386;22.136;2024-03-07T03:28:41;6.95;;;3.35;;
85472;SDS011;75874;41.386;22.136;2024-03-07T03:31:07;4.43;;;2.83;;
85472;SDS011;75874;41.386;22.136;2024-03-07T03:33:33;4.78;;;2.80;;
85472;SDS011;75874;41.386;22.136;2024-03-07T03:36:00;5.25;;;4.07;;
85472;SDS011;75874;41.386;22.136;2024-03-07T03:38:26;5.07;;;2.55;;
85472;SDS011;75874;41.386;22.136;2024-03-07T03:40:51;4.55;;;2.70;;
85472;SDS011;75874;41.386;22.136;2024-03-07T03:43:17;6.63;;;3.40;;
85472;SDS011;75874;41.386;22.136;2024-03-07T03:45:43;4.65;;;2.67;;
85472;SDS011;75874;41.386;22.136;2024-03-07T03:48:10;5.55;;;2.95;;
85472;SDS011;75874;41.386;22.136;2024-03-07T03:50:36;4.57;;;2.60;;
85472;SDS011;75874;41.386;22.136;2024-03-07T03:53:01;5.53;;;3.47;;
85472;SDS011;75874;41.386;22.136;2024-03-07T03:55:29;3.08;;;2.10;;
85472;SDS011;75874;41.386;22.136;2024-03-07T03:57:54;3.75;;;1.90;;
85472;SDS011;75874;41.386;22.136;2024-03-07T04:00:20;3.33;;;2.00;;
85472;SDS011;75874;41.386;22.136;2024-03-07T04:02:48;4.15;;;2.83;;
85472;SDS011;75874;41.386;22.136;2024-03-07T04:05:14;3.90;;;2.17;;
85472;SDS011;75874;41.386;22.136;2024-03-07T04:07:41;3.28;;;1.70;;
85472;SDS011;75874;41.386;22.136;2024-03-07T04:10:09;4.28;;;2.00;;
85472;SDS011;75874;41.386;22.136;2024-03-07T04:12:37;2.03;;;1.30;;
85472;SDS011;75874;41.386;22.136;2024-03-07T04:15:05;2.50;;;1.55;;
85472;SDS011;75874;41.386;22.136;2024-03-07T04:17:35;1.58;;;1.08;;
85472;SDS011;75874;41.386;22.136;2024-03-07T04:20:06;1.38;;;1.02;;
85472;SDS011;75874;41.386;22.136;2024-03-07T04:22:35;2.13;;;0.68;;
85472;SDS011;75874;41.386;22.136;2024-03-07T04:25:04;2.35;;;0.88;;
85472;SDS011;75874;41.386;22.136;2024-03-07T04:27:32;2.22;;;1.45;;
85472;SDS011;75874;41.386;22.136;2024-03-07T04:30:05;3.60;;;1.30;;
85472;SDS011;75874;41.386;22.136;2024-03-07T04:32:33;0.98;;;0.80;;
85472;SDS011;75874;41.386;22.136;2024-03-07T04:35:02;2.85;;;1.40;;
85472;SDS011;75874;41.386;22.136;2024-03-07T04:37:33;1.80;;;1.00;;
85472;SDS011;75874;41.386;22.136;2024-03-07T04:40:05;2.20;;;1.40;;
85472;SDS011;75874;41.386;22.136;2024-03-07T04:42:42;4.07;;;1.73;;
85472;SDS011;75874;41.386;22.136;2024-03-07T04:45:10;2.58;;;1.25;;
85472;SDS011;75874;41.386;22.136;2024-03-07T04:47:38;2.75;;;1.17;;
85472;SDS011;75874;41.386;22.136;2024-03-07T04:50:05;1.90;;;1.23;;
85472;SDS011;75874;41.386;22.136;2024-03-07T04:52:31;2.22;;;1.15;;
85472;SDS011;75874;41.386;22.136;2024-03-07T04:54:56;2.05;;;1.23;;
85472;SDS011;75874;41.386;22.136;2024-03-07T04:57:22;3.13;;;1.30;;
85472;SDS011;75874;41.386;22.136;2024-03-07T04:59:47;2.33;;;1.02;;
85472;SDS011;75874;41.386;22.136;2024-03-07T05:02:13;1.42;;;0.85;;
85472;SDS011;75874;41.386;22.136;2024-03-07T05:04:39;1.52;;;0.82;;
85472;SDS011;75874;41.386;22.136;2024-03-07T05:07:04;1.58;;;1.00;;
85472;SDS011;75874;41.386;22.136;2024-03-07T05:09:30;1.70;;;1.02;;
85472;SDS011;75874;41.386;22.136;2024-03-07T05:11:58;0.95;;;0.70;;
85472;SDS011;75874;41.386;22.136;2024-03-07T05:17:14;3.03;;;1.15;;
85472;SDS011;75874;41.386;22.136;2024-03-07T05:19:40;2.20;;;1.20;;
85472;SDS011;75874;41.386;22.136;2024-03-07T05:22:05;10.40;;;1.42;;
85472;SDS011;75874;41.386;22.136;2024-03-07T05:24:31;2.17;;;0.88;;
85472;SDS011;75874;41.386;22.136;2024-03-07T05:26:59;0.73;;;0.55;;
85472;SDS011;75874;41.386;22.136;2024-03-07T05:29:24;2.38;;;0.88;;
85472;SDS011;75874;41.386;22.136;2024-03-07T05:31:51;2.80;;;1.00;;
85472;SDS011;75874;41.386;22.136;2024-03-07T05:34:16;2.13;;;0.93;;
85472;SDS011;75874;41.386;22.136;2024-03-07T05:36:48;3.70;;;1.10;;
85472;SDS011;75874;41.386;22.136;2024-03-07T05:39:15;4.63;;;1.17;;
85472;SDS011;75874;41.386;22.136;2024-03-07T05:41:43;0.77;;;0.57;;
85472;SDS011;75874;41.386;22.136;2024-03-07T05:44:13;2.60;;;0.80;;
85472;SDS011;75874;41.386;22.136;2024-03-07T05:46:40;1.45;;;0.80;;
85472;SDS011;75874;41.386;22.136;2024-03-07T05:49:11;3.22;;;0.82;;
85472;SDS011;75874;41.386;22.136;2024-03-07T05:51:38;1.67;;;0.75;;
85472;SDS011;75874;41.386;22.136;2024-03-07T05:54:03;3.78;;;1.30;;
85472;SDS011;75874;41.386;22.136;2024-03-07T05:56:34;3.65;;;0.70;;
85472;SDS011;75874;41.386;22.136;2024-03-07T05:59:03;1.95;;;0.95;;
85472;SDS011;75874;41.386;22.136;2024-03-07T06:04:00;0.65;;;0.63;;
85472;SDS011;75874;41.386;22.136;2024-03-07T06:09:48;3.58;;;0.95;;
85472;SDS011;75874;41.386;22.136;2024-03-07T06:12:15;1.42;;;0.65;;
85472;SDS011;75874;41.386;22.136;2024-03-07T06:14:41;2.17;;;0.70;;
85472;SDS011;75874;41.386;22.136;2024-03-07T06:17:08;0.75;;;0.65;;
85472;SDS011;75874;41.386;22.136;2024-03-07T06:19:33;2.90;;;1.00;;
85472;SDS011;75874;41.386;22.136;2024-03-07T06:21:59;3.92;;;0.80;;
85472;SDS011;75874;41.386;22.136;2024-03-07T06:24:25;5.00;;;1.00;;
85472;SDS011;75874;41.386;22.136;2024-03-07T06:26:55;1.58;;;0.70;;
85472;SDS011;75874;41.386;22.136;2024-03-07T06:29:29;3.17;;;1.00;;
85472;SDS011;75874;41.386;22.136;2024-03-07T06:31:55;4.07;;;0.90;;
85472;SDS011;75874;41.386;22.136;2024-03-07T06:34:21;2.25;;;0.95;;
85472;SDS011;75874;41.386;22.136;2024-03-07T06:36:46;4.70;;;0.90;;
85472;SDS011;75874;41.386;22.136;2024-03-07T06:42:33;3.90;;;1.02;;
85472;SDS011;75874;41.386;22.136;2024-03-07T06:48:05;3.42;;;1.02;;
85472;SDS011;75874;41.386;22.136;2024-03-07T06:50:37;0.80;;;0.57;;
85472;SDS011;75874;41.386;22.136;2024-03-07T06:53:03;1.30;;;0.68;;
85472;SDS011;75874;41.386;22.136;2024-03-07T06:55:32;4.32;;;0.75;;
85472;SDS011;75874;41.386;22.136;2024-03-07T06:57:59;3.00;;;0.93;;
85472;SDS011;75874;41.386;22.136;2024-03-07T07:00:30;3.15;;;0.80;;
85472;SDS011;75874;41.386;22.136;2024-03-07T07:02:59;1.65;;;0.60;;
85472;SDS011;75874;41.386;22.136;2024-03-07T07:05:24;1.20;;;0.88;;
85472;SDS011;75874;41.386;22.136;2024-03-07T07:07:50;2.47;;;0.70;;
85472;SDS011;75874;41.386;22.136;2024-03-07T07:10:18;2.60;;;0.77;;
85472;SDS011;75874;41.386;22.136;2024-03-07T07:12:46;1.92;;;0.70;;
85472;SDS011;75874;41.386;22.136;2024-03-07T07:15:16;4.38;;;1.00;;
85472;SDS011;75874;41.386;22.136;2024-03-07T07:17:43;1.83;;;0.85;;
85472;SDS011;75874;41.386;22.136;2024-03-07T07:20:12;3.97;;;1.10;;
85472;SDS011;75874;41.386;22.136;2024-03-07T07:22:43;2.47;;;0.60;;
85472;SDS011;75874;41.386;22.136;2024-03-07T07:25:11;1.90;;;0.80;;
85472;SDS011;75874;41.386;22.136;2024-03-07T07:27:45;3.45;;;0.90;;
85472;SDS011;75874;41.386;22.136;2024-03-07T07:30:13;1.30;;;0.63;;
85472;SDS011;75874;41.386;22.136;2024-03-07T07:32:40;2.55;;;0.82;;
85472;SDS011;75874;41.386;22.136;2024-03-07T07:35:08;1.88;;;0.80;;
85472;SDS011;75874;41.386;22.136;2024-03-07T07:37:46;4.15;;;0.70;;
85472;SDS011;75874;41.386;22.136;2024-03-07T07:40:15;3.75;;;1.02;;
85472;SDS011;75874;41.386;22.136;2024-03-07T07:42:48;4.15;;;1.20;;
85472;SDS011;75874;41.386;22.136;2024-03-07T07:45:18;5.32;;;0.85;;
85472;SDS011;75874;41.386;22.136;2024-03-07T07:47:46;3.65;;;1.00;;
85472;SDS011;75874;41.386;22.136;2024-03-07T07:50:21;1.92;;;1.10;;
85472;SDS011;75874;41.386;22.136;2024-03-07T07:52:55;3.10;;;1.27;;
85472;SDS011;75874;41.386;22.136;2024-03-07T07:55:26;2.47;;;1.25;;
85472;SDS011;75874;41.386;22.136;2024-03-07T07:57:54;1.65;;;1.10;;
85472;SDS011;75874;41.386;22.136;2024-03-07T08:00:21;2.00;;;1.15;;
85472;SDS011;75874;41.386;22.136;2024-03-07T08:05:19;3.25;;;0.80;;
85472;SDS011;75874;41.386;22.136;2024-03-07T08:10:41;2.90;;;1.60;;
85472;SDS011;75874;41.386;22.136;2024-03-07T08:13:07;4.20;;;1.05;;
85472;SDS011;75874;41.386;22.136;2024-03-07T08:15:35;3.10;;;1.00;;
85472;SDS011;75874;41.386;22.136;2024-03-07T08:18:01;2.65;;;0.93;;
85472;SDS011;75874;41.386;22.136;2024-03-07T08:20:33;1.83;;;1.00;;
85472;SDS011;75874;41.386;22.136;2024-03-07T08:23:01;2.33;;;0.88;;
85472;SDS011;75874;41.386;22.136;2024-03-07T08:25:27;2.28;;;0.75;;
85472;SDS011;75874;41.386;22.136;2024-03-07T08:27:55;3.80;;;0.85;;
85472;SDS011;75874;41.386;22.136;2024-03-07T08:30:23;3.58;;;1.00;;
85472;SDS011;75874;41.386;22.136;2024-03-07T08:32:50;2.30;;;0.68;;
85472;SDS011;75874;41.386;22.136;2024-03-07T08:35:17;5.22;;;1.00;;
85472;SDS011;75874;41.386;22.136;2024-03-07T08:37:47;4.68;;;1.25;;
85472;SDS011;75874;41.386;22.136;2024-03-07T08:40:26;1.42;;;0.95;;
85472;SDS011;75874;41.386;22.136;2024-03-07T08:42:57;2.90;;;1.48;;
85472;SDS011;75874;41.386;22.136;2024-03-07T08:45:24;6.80;;;3.10;;
85472;SDS011;75874;41.386;22.136;2024-03-07T08:51:12;3.25;;;1.45;;
85472;SDS011;75874;41.386;22.136;2024-03-07T08:53:38;5.15;;;1.70;;
85472;SDS011;75874;41.386;22.136;2024-03-07T08:56:04;5.30;;;2.67;;
85472;SDS011;75874;41.386;22.136;2024-03-07T08:58:29;5.13;;;2.92;;
85472;SDS011;75874;41.386;22.136;2024-03-07T09:00:55;12.52;;;5.43;;
85472;SDS011;75874;41.386;22.136;2024-03-07T09:03:20;3.55;;;1.45;;
85472;SDS011;75874;41.386;22.136;2024-03-07T09:05:56;3.95;;;1.40;;
85472;SDS011;75874;41.386;22.136;2024-03-07T09:08:21;2.25;;;1.13;;
85472;SDS011;75874;41.386;22.136;2024-03-07T09:10:47;2.20;;;1.05;;
85472;SDS011;75874;41.386;22.136;2024-03-07T09:16:35;2.70;;;1.20;;
85472;SDS011;75874;41.386;22.136;2024-03-07T09:19:01;2.53;;;1.20;;
85472;SDS011;75874;41.386;22.136;2024-03-07T09:21:36;3.88;;;1.27;;
85472;SDS011;75874;41.386;22.136;2024-03-07T09:24:02;3.33;;;1.40;;
85472;SDS011;75874;41.386;22.136;2024-03-07T09:26:28;2.83;;;1.30;;
85472;SDS011;75874;41.386;22.136;2024-03-07T09:28:53;3.30;;;1.30;;
85472;SDS011;75874;41.386;22.136;2024-03-07T09:31:21;4.97;;;1.60;;
85472;SDS011;75874;41.386;22.136;2024-03-07T09:33:46;2.88;;;1.23;;
85472;SDS011;75874;41.386;22.136;2024-03-07T09:36:13;5.43;;;1.60;;
85472;SDS011;75874;41.386;22.136;2024-03-07T09:38:40;2.22;;;1.20;;
85472;SDS011;75874;41.386;22.136;2024-03-07T09:41:06;1.73;;;1.08;;
85472;SDS011;75874;41.386;22.136;2024-03-07T09:43:31;3.50;;;1.30;;
85472;SDS011;75874;41.386;22.136;2024-03-07T09:45:59;2.28;;;1.38;;
85472;SDS011;75874;41.386;22.136;2024-03-07T09:48:28;4.05;;;1.88;;
85472;SDS011;75874;41.386;22.136;2024-03-07T09:50:55;3.35;;;1.40;;
85472;SDS011;75874;41.386;22.136;2024-03-07T09:53:25;2.70;;;1.40;;
85472;SDS011;75874;41.386;22.136;2024-03-07T09:55:51;4.75;;;1.52;;
85472;SDS011;75874;41.386;22.136;2024-03-07T09:58:19;2.53;;;1.45;;
85472;SDS011;75874;41.386;22.136;2024-03-07T10:01:00;3.20;;;1.45;;
85472;SDS011;75874;41.386;22.136;2024-03-07T10:03:31;1.88;;;1.17;;
85472;SDS011;75874;41.386;22.136;2024-03-07T10:06:00;5.05;;;1.38;;
85472;SDS011;75874;41.386;22.136;2024-03-07T10:08:26;7.45;;;1.70;;
85472;SDS011;75874;41.386;22.136;2024-03-07T10:10:54;3.85;;;1.58;;
85472;SDS011;75874;41.386;22.136;2024-03-07T10:13:21;2.42;;;1.50;;
85472;SDS011;75874;41.386;22.136;2024-03-07T10:15:47;3.20;;;1.15;;
85472;SDS011;75874;41.386;22.136;2024-03-07T10:18:14;2.65;;;1.30;;
85472;SDS011;75874;41.386;22.136;2024-03-07T10:20:41;2.83;;;1.30;;
85472;SDS011;75874;41.386;22.136;2024-03-07T10:23:08;3.88;;;1.77;;
85472;SDS011;75874;41.386;22.136;2024-03-07T10:25:35;1.90;;;1.40;;
85472;SDS011;75874;41.386;22.136;2024-03-07T10:28:02;3.33;;;1.50;;
85472;SDS011;75874;41.386;22.136;2024-03-07T10:30:29;4.53;;;1.48;;
85472;SDS011;75874;41.386;22.136;2024-03-07T10:32:55;2.38;;;1.58;;
85472;SDS011;75874;41.386;22.136;2024-03-07T10:35:24;4.35;;;1.70;;
85472;SDS011;75874;41.386;22.136;2024-03-07T10:37:53;4.00;;;1.80;;
85472;SDS011;75874;41.386;22.136;2024-03-07T10:40:20;5.88;;;1.90;;
85472;SDS011;75874;41.386;22.136;2024-03-07T10:42:47;2.65;;;1.55;;
85472;SDS011;75874;41.386;22.136;2024-03-07T10:45:20;4.03;;;1.65;;
85472;SDS011;75874;41.386;22.136;2024-03-07T10:47:52;4.22;;;2.17;;
85472;SDS011;75874;41.386;22.136;2024-03-07T10:52:54;4.65;;;2.00;;
85472;SDS011;75874;41.386;22.136;2024-03-07T10:58:02;2.65;;;1.63;;
85472;SDS011;75874;41.386;22.136;2024-03-07T11:00:39;2.25;;;1.70;;
85472;SDS011;75874;41.386;22.136;2024-03-07T11:03:13;5.07;;;1.80;;
85472;SDS011;75874;41.386;22.136;2024-03-07T11:05:39;2.67;;;1.75;;
85472;SDS011;75874;41.386;22.136;2024-03-07T11:08:08;2.42;;;1.77;;
85472;SDS011;75874;41.386;22.136;2024-03-07T11:10:38;2.47;;;1.58;;
85472;SDS011;75874;41.386;22.136;2024-03-07T11:13:06;3.75;;;1.80;;
85472;SDS011;75874;41.386;22.136;2024-03-07T11:15:37;2.72;;;1.92;;
85472;SDS011;75874;41.386;22.136;2024-03-07T11:18:06;3.33;;;1.92;;
85472;SDS011;75874;41.386;22.136;2024-03-07T11:20:34;3.20;;;1.92;;
85472;SDS011;75874;41.386;22.136;2024-03-07T11:23:13;3.35;;;1.92;;
85472;SDS011;75874;41.386;22.136;2024-03-07T11:26:07;2.33;;;1.55;;
85472;SDS011;75874;41.386;22.136;2024-03-07T11:28:37;3.83;;;1.58;;
85472;SDS011;75874;41.386;22.136;2024-03-07T11:33:42;3.80;;;1.77;;
85472;SDS011;75874;41.386;22.136;2024-03-07T11:36:44;2.97;;;1.80;;
85472;SDS011;75874;41.386;22.136;2024-03-07T11:42:22;2.22;;;1.90;;
85472;SDS011;75874;41.386;22.136;2024-03-07T11:44:53;5.18;;;1.55;;
85472;SDS011;75874;41.386;22.136;2024-03-07T11:47:26;3.70;;;1.70;;
85472;SDS011;75874;41.386;22.136;2024-03-07T11:50:00;2.58;;;1.50;;
85472;SDS011;75874;41.386;22.136;2024-03-07T11:52:27;5.65;;;3.28;;
85472;SDS011;75874;41.386;22.136;2024-03-07T11:54:53;5.82;;;2.50;;
85472;SDS011;75874;41.386;22.136;2024-03-07T11:57:22;5.18;;;3.17;;
85472;SDS011;75874;41.386;22.136;2024-03-07T12:00:18;3.83;;;2.65;;
85472;SDS011;75874;41.386;22.136;2024-03-07T12:02:45;2.78;;;2.05;;
85472;SDS011;75874;41.386;22.136;2024-03-07T12:05:13;4.22;;;2.03;;
85472;SDS011;75874;41.386;22.136;2024-03-07T12:07:41;4.90;;;2.00;;
85472;SDS011;75874;41.386;22.136;2024-03-07T12:12:35;1.92;;;1.45;;
85472;SDS011;75874;41.386;22.136;2024-03-07T12:15:04;2.92;;;1.52;;
85472;SDS011;75874;41.386;22.136;2024-03-07T12:17:46;2.30;;;1.90;;
85472;SDS011;75874;41.386;22.136;2024-03-07T13:16:18;2.42;;;1.63;;
85472;SDS011;75874;41.386;22.136;2024-03-07T13:18:44;2.00;;;1.60;;
85472;SDS011;75874;41.386;22.136;2024-03-07T13:21:11;2.97;;;1.90;;
85472;SDS011;75874;41.386;22.136;2024-03-07T13:23:43;3.58;;;1.85;;
85472;SDS011;75874;41.386;22.136;2024-03-07T13:26:09;2.58;;;1.90;;
85472;SDS011;75874;41.386;22.136;2024-03-07T13:28:44;6.20;;;2.13;;
85472;SDS011;75874;41.386;22.136;2024-03-07T13:31:10;4.70;;;1.67;;
85472;SDS011;75874;41.386;22.136;2024-03-07T13:33:45;4.45;;;1.63;;
85472;SDS011;75874;41.386;22.136;2024-03-07T13:36:11;2.92;;;1.55;;
85472;SDS011;75874;41.386;22.136;2024-03-07T13:38:39;2.92;;;1.70;;
85472;SDS011;75874;41.386;22.136;2024-03-07T13:41:05;4.03;;;1.70;;
85472;SDS011;75874;41.386;22.136;2024-03-07T13:43:31;2.70;;;1.88;;
85472;SDS011;75874;41.386;22.136;2024-03-07T13:48:25;2.22;;;1.77;;
85472;SDS011;75874;41.386;22.136;2024-03-07T13:50:50;1.20;;;1.02;;
85472;SDS011;75874;41.386;22.136;2024-03-07T13:53:18;3.65;;;1.40;;
85472;SDS011;75874;41.386;22.136;2024-03-07T14:06:30;3.33;;;1.90;;
85472;SDS011;75874;41.386;22.136;2024-03-07T14:09:29;2.10;;;1.55;;
85472;SDS011;75874;41.386;22.136;2024-03-07T14:32:51;2.92;;;1.30;;
85472;SDS011;75874;41.386;22.136;2024-03-07T14:35:24;4.22;;;1.60;;
85472;SDS011;75874;41.386;22.136;2024-03-07T14:40:49;2.33;;;1.42;;
85472;SDS011;75874;41.386;22.136;2024-03-07T14:43:16;2.50;;;1.40;;
85472;SDS011;75874;41.386;22.136;2024-03-07T14:45:44;4.65;;;1.55;;
85472;SDS011;75874;41.386;22.136;2024-03-07T14:48:12;3.13;;;1.52;;
85472;SDS011;75874;41.386;22.136;2024-03-07T14:50:42;2.72;;;1.55;;
85472;SDS011;75874;41.386;22.136;2024-03-07T14:53:12;4.82;;;1.48;;
85472;SDS011;75874;41.386;22.136;2024-03-07T14:55:39;3.25;;;1.70;;
85472;SDS011;75874;41.386;22.136;2024-03-07T14:58:06;2.10;;;1.40;;
85472;SDS011;75874;41.386;22.136;2024-03-07T15:00:36;3.65;;;1.33;;
85472;SDS011;75874;41.386;22.136;2024-03-07T15:03:07;3.92;;;1.90;;
85472;SDS011;75874;41.386;22.136;2024-03-07T15:05:40;2.55;;;1.50;;
85472;SDS011;75874;41.386;22.136;2024-03-07T15:08:07;4.68;;;1.70;;
85472;SDS011;75874;41.386;22.136;2024-03-07T15:10:35;2.55;;;1.60;;
85472;SDS011;75874;41.386;22.136;2024-03-07T15:13:03;2.80;;;1.63;;
85472;SDS011;75874;41.386;22.136;2024-03-07T15:15:29;4.53;;;1.30;;
85472;SDS011;75874;41.386;22.136;2024-03-07T15:17:58;2.65;;;1.30;;
85472;SDS011;75874;41.386;22.136;2024-03-07T15:20:24;1.63;;;1.17;;
85472;SDS011;75874;41.386;22.136;2024-03-07T15:26:31;3.45;;;1.73;;
85472;SDS011;75874;41.386;22.136;2024-03-07T15:28:57;2.25;;;1.50;;
85472;SDS011;75874;41.386;22.136;2024-03-07T15:31:23;3.42;;;1.58;;
85472;SDS011;75874;41.386;22.136;2024-03-07T15:33:52;4.95;;;1.90;;
85472;SDS011;75874;41.386;22.136;2024-03-07T15:36:18;15.70;;;7.63;;
85472;SDS011;75874;41.386;22.136;2024-03-07T15:38:46;26.63;;;14.13;;
85472;SDS011;75874;41.386;22.136;2024-03-07T15:44:34;4.53;;;2.60;;
85472;SDS011;75874;41.386;22.136;2024-03-07T15:47:00;3.00;;;1.50;;
85472;SDS011;75874;41.386;22.136;2024-03-07T15:49:26;3.38;;;1.35;;
85472;SDS011;75874;41.386;22.136;2024-03-07T15:51:51;1.48;;;1.00;;
85472;SDS011;75874;41.386;22.136;2024-03-07T15:54:17;2.30;;;1.30;;
85472;SDS011;75874;41.386;22.136;2024-03-07T15:56:43;2.67;;;1.20;;
85472;SDS011;75874;41.386;22.136;2024-03-07T15:59:09;2.47;;;1.30;;
85472;SDS011;75874;41.386;22.136;2024-03-07T16:01:36;4.53;;;1.35;;
85472;SDS011;75874;41.386;22.136;2024-03-07T16:04:02;5.60;;;1.10;;
85472;SDS011;75874;41.386;22.136;2024-03-07T16:06:30;2.05;;;1.35;;
85472;SDS011;75874;41.386;22.136;2024-03-07T16:08:56;2.15;;;1.30;;
85472;SDS011;75874;41.386;22.136;2024-03-07T16:11:23;4.28;;;1.55;;
85472;SDS011;75874;41.386;22.136;2024-03-07T16:13:49;3.25;;;1.20;;
85472;SDS011;75874;41.386;22.136;2024-03-07T16:16:15;2.72;;;1.50;;
85472;SDS011;75874;41.386;22.136;2024-03-07T16:18:42;2.92;;;1.50;;
85472;SDS011;75874;41.386;22.136;2024-03-07T16:21:08;2.67;;;1.50;;
85472;SDS011;75874;41.386;22.136;2024-03-07T16:23:34;2.40;;;1.40;;
85472;SDS011;75874;41.386;22.136;2024-03-07T16:25:59;2.50;;;1.52;;
85472;SDS011;75874;41.386;22.136;2024-03-07T16:28:29;3.88;;;1.88;;
85472;SDS011;75874;41.386;22.136;2024-03-07T16:30:55;3.50;;;1.58;;
85472;SDS011;75874;41.386;22.136;2024-03-07T16:33:23;2.00;;;1.30;;
85472;SDS011;75874;41.386;22.136;2024-03-07T16:35:53;2.97;;;1.55;;
85472;SDS011;75874;41.386;22.136;2024-03-07T16:38:18;4.20;;;1.40;;
85472;SDS011;75874;41.386;22.136;2024-03-07T16:43:14;32.63;;;16.88;;
85472;SDS011;75874;41.386;22.136;2024-03-07T16:45:40;9.85;;;4.35;;
85472;SDS011;75874;41.386;22.136;2024-03-07T16:48:18;11.45;;;6.35;;
85472;SDS011;75874;41.386;22.136;2024-03-07T16:50:47;34.75;;;16.88;;
85472;SDS011;75874;41.386;22.136;2024-03-07T16:53:13;16.90;;;10.70;;
85472;SDS011;75874;41.386;22.136;2024-03-07T16:55:39;19.40;;;11.70;;
85472;SDS011;75874;41.386;22.136;2024-03-07T16:58:05;12.10;;;6.03;;
85472;SDS011;75874;41.386;22.136;2024-03-07T17:00:36;33.35;;;24.25;;